sensor_id;sensor_type;location;lat;lon;timestamp;P1;durP1;ratioP1;P2;durP2;ratioP2
18265;SDS011;9259;48.194;16.322;2023-04-24T00:01:09;4.20;;;2.20;;
18265;SDS011;9259;48.194;16.322;2023-04-24T00:03:38;4.18;;;2.28;;
18265;SDS011;9259;48.194;16.322;2023-04-24T00:06:06;3.70;;;1.88;;
18265;SDS011;9259;48.194;16.322;2023-04-24T00:08:38;3.97;;;2.27;;
18265;SDS011;9259;48.194;16.322;2023-04-24T00:11:06;3.07;;;1.90;;
18265;SDS011;9259;48.194;16.322;2023-04-24T00:13:35;4.40;;;1.83;;
18265;SDS011;9259;48.194;16.322;2023-04-24T00:16:03;3.38;;;2.03;;
18265;SDS011;9259;48.194;16.322;2023-04-24T00:18:32;3.30;;;2.17;;
18265;SDS011;9259;48.194;16.322;2023-04-24T00:21:00;3.20;;;1.77;;
18265;SDS011;9259;48.194;16.322;2023-04-24T00:23:28;4.45;;;1.85;;
18265;SDS011;9259;48.194;16.322;2023-04-24T00:25:56;3.57;;;2.17;;
18265;SDS011;9259;48.194;16.322;2023-04-24T00:28:24;4.13;;;2.28;;
18265;SDS011;9259;48.194;16.322;2023-04-24T00:30:52;3.70;;;1.92;;
18265;SDS011;9259;48.194;16.322;2023-04-24T00:33:20;3.97;;;2.27;;
18265;SDS011;9259;48.194;16.322;2023-04-24T00:35:49;3.53;;;2.22;;
18265;SDS011;9259;48.194;16.322;2023-04-24T00:38:17;4.13;;;1.58;;
18265;SDS011;9259;48.194;16.322;2023-04-24T00:40:45;4.43;;;2.45;;
18265;SDS011;9259;48.194;16.322;2023-04-24T00:43:14;4.05;;;1.77;;
18265;SDS011;9259;48.194;16.322;2023-04-24T00:45:42;3.10;;;2.00;;
18265;SDS011;9259;48.194;16.322;2023-04-24T00:48:10;2.83;;;1.73;;
18265;SDS011;9259;48.194;16.322;2023-04-24T00:50:39;5.32;;;2.70;;
18265;SDS011;9259;48.194;16.322;2023-04-24T00:53:08;2.90;;;1.70;;
18265;SDS011;9259;48.194;16.322;2023-04-24T00:55:36;3.72;;;1.92;;
18265;SDS011;9259;48.194;16.322;2023-04-24T00:58:04;2.63;;;1.83;;
18265;SDS011;9259;48.194;16.322;2023-04-24T01:00:32;4.53;;;2.08;;
18265;SDS011;9259;48.194;16.322;2023-04-24T01:03:00;4.10;;;1.80;;
18265;SDS011;9259;48.194;16.322;2023-04-24T01:05:32;3.70;;;2.17;;
18265;SDS011;9259;48.194;16.322;2023-04-24T01:08:00;3.30;;;2.08;;
18265;SDS011;9259;48.194;16.322;2023-04-24T01:10:31;3.33;;;2.08;;
18265;SDS011;9259;48.194;16.322;2023-04-24T01:13:01;3.58;;;1.83;;
18265;SDS011;9259;48.194;16.322;2023-04-24T01:15:29;2.92;;;1.77;;
18265;SDS011;9259;48.194;16.322;2023-04-24T01:17:57;4.88;;;2.55;;
18265;SDS011;9259;48.194;16.322;2023-04-24T01:20:25;5.55;;;2.40;;
18265;SDS011;9259;48.194;16.322;2023-04-24T01:22:55;5.88;;;2.53;;
18265;SDS011;9259;48.194;16.322;2023-04-24T01:25:24;4.93;;;2.33;;
18265;SDS011;9259;48.194;16.322;2023-04-24T01:27:54;5.73;;;2.37;;
18265;SDS011;9259;48.194;16.322;2023-04-24T01:30:22;6.17;;;2.40;;
18265;SDS011;9259;48.194;16.322;2023-04-24T01:32:50;5.77;;;2.50;;
18265;SDS011;9259;48.194;16.322;2023-04-24T01:35:18;5.63;;;2.33;;
18265;SDS011;9259;48.194;16.322;2023-04-24T01:37:46;4.30;;;2.30;;
18265;SDS011;9259;48.194;16.322;2023-04-24T01:40:16;5.40;;;2.70;;
18265;SDS011;9259;48.194;16.322;2023-04-24T01:42:44;6.87;;;3.07;;
18265;SDS011;9259;48.194;16.322;2023-04-24T01:45:12;5.27;;;2.47;;
18265;SDS011;9259;48.194;16.322;2023-04-24T01:47:40;5.07;;;2.67;;
18265;SDS011;9259;48.194;16.322;2023-04-24T01:50:09;8.03;;;2.57;;
18265;SDS011;9259;48.194;16.322;2023-04-24T01:52:37;4.83;;;2.43;;
18265;SDS011;9259;48.194;16.322;2023-04-24T01:55:05;4.60;;;2.10;;
18265;SDS011;9259;48.194;16.322;2023-04-24T01:57:36;3.23;;;2.13;;
18265;SDS011;9259;48.194;16.322;2023-04-24T02:00:04;5.23;;;2.37;;
18265;SDS011;9259;48.194;16.322;2023-04-24T02:02:33;5.60;;;2.70;;
18265;SDS011;9259;48.194;16.322;2023-04-24T02:05:01;4.60;;;2.40;;
18265;SDS011;9259;48.194;16.322;2023-04-24T02:07:30;4.17;;;2.00;;
18265;SDS011;9259;48.194;16.322;2023-04-24T02:09:58;3.47;;;2.07;;
18265;SDS011;9259;48.194;16.322;2023-04-24T02:12:26;6.13;;;2.30;;
18265;SDS011;9259;48.194;16.322;2023-04-24T02:14:56;4.50;;;2.10;;
18265;SDS011;9259;48.194;16.322;2023-04-24T02:17:24;6.33;;;1.83;;
18265;SDS011;9259;48.194;16.322;2023-04-24T02:19:52;4.53;;;1.97;;
18265;SDS011;9259;48.194;16.322;2023-04-24T02:22:20;2.40;;;1.60;;
18265;SDS011;9259;48.194;16.322;2023-04-24T02:24:48;2.37;;;1.50;;
18265;SDS011;9259;48.194;16.322;2023-04-24T02:27:16;3.07;;;1.70;;
18265;SDS011;9259;48.194;16.322;2023-04-24T02:29:44;3.03;;;1.60;;
18265;SDS011;9259;48.194;16.322;2023-04-24T02:32:13;5.20;;;1.40;;
18265;SDS011;9259;48.194;16.322;2023-04-24T02:34:41;2.93;;;1.50;;
18265;SDS011;9259;48.194;16.322;2023-04-24T02:37:09;3.13;;;1.80;;
18265;SDS011;9259;48.194;16.322;2023-04-24T02:39:37;2.17;;;1.20;;
18265;SDS011;9259;48.194;16.322;2023-04-24T02:42:05;3.43;;;1.70;;
18265;SDS011;9259;48.194;16.322;2023-04-24T02:44:33;3.40;;;1.60;;
18265;SDS011;9259;48.194;16.322;2023-04-24T02:47:01;3.27;;;1.47;;
18265;SDS011;9259;48.194;16.322;2023-04-24T02:49:31;4.33;;;1.50;;
18265;SDS011;9259;48.194;16.322;2023-04-24T02:51:59;2.50;;;1.40;;
18265;SDS011;9259;48.194;16.322;2023-04-24T02:54:27;2.50;;;1.60;;
18265;SDS011;9259;48.194;16.322;2023-04-24T02:56:55;4.50;;;1.70;;
18265;SDS011;9259;48.194;16.322;2023-04-24T02:59:23;3.40;;;1.40;;
18265;SDS011;9259;48.194;16.322;2023-04-24T03:01:52;3.23;;;1.50;;
18265;SDS011;9259;48.194;16.322;2023-04-24T03:04:20;3.20;;;1.47;;
18265;SDS011;9259;48.194;16.322;2023-04-24T03:06:50;4.10;;;1.67;;
18265;SDS011;9259;48.194;16.322;2023-04-24T03:09:18;1.60;;;1.40;;
18265;SDS011;9259;48.194;16.322;2023-04-24T03:11:46;2.93;;;1.67;;
18265;SDS011;9259;48.194;16.322;2023-04-24T03:14:14;3.43;;;1.67;;
18265;SDS011;9259;48.194;16.322;2023-04-24T03:16:43;2.93;;;1.80;;
18265;SDS011;9259;48.194;16.322;2023-04-24T03:19:11;2.57;;;1.50;;
18265;SDS011;9259;48.194;16.322;2023-04-24T03:21:39;5.53;;;1.73;;
18265;SDS011;9259;48.194;16.322;2023-04-24T03:24:08;2.50;;;1.27;;
18265;SDS011;9259;48.194;16.322;2023-04-24T03:26:36;2.73;;;1.67;;
18265;SDS011;9259;48.194;16.322;2023-04-24T03:29:04;3.13;;;1.57;;
18265;SDS011;9259;48.194;16.322;2023-04-24T03:31:32;3.80;;;1.60;;
18265;SDS011;9259;48.194;16.322;2023-04-24T03:34:00;2.93;;;1.50;;
18265;SDS011;9259;48.194;16.322;2023-04-24T03:36:28;2.23;;;1.27;;
18265;SDS011;9259;48.194;16.322;2023-04-24T03:38:56;3.40;;;1.53;;
18265;SDS011;9259;48.194;16.322;2023-04-24T03:41:25;2.23;;;1.20;;
18265;SDS011;9259;48.194;16.322;2023-04-24T03:43:53;4.20;;;1.53;;
18265;SDS011;9259;48.194;16.322;2023-04-24T03:46:21;3.03;;;1.10;;
18265;SDS011;9259;48.194;16.322;2023-04-24T03:48:49;2.13;;;1.50;;
18265;SDS011;9259;48.194;16.322;2023-04-24T03:51:17;2.00;;;1.33;;
18265;SDS011;9259;48.194;16.322;2023-04-24T03:53:45;2.80;;;1.60;;
18265;SDS011;9259;48.194;16.322;2023-04-24T03:56:13;2.83;;;1.50;;
18265;SDS011;9259;48.194;16.322;2023-04-24T03:58:42;3.43;;;1.60;;
18265;SDS011;9259;48.194;16.322;2023-04-24T04:01:10;1.53;;;1.07;;
18265;SDS011;9259;48.194;16.322;2023-04-24T04:03:39;2.83;;;1.70;;
18265;SDS011;9259;48.194;16.322;2023-04-24T04:06:06;1.90;;;1.33;;
18265;SDS011;9259;48.194;16.322;2023-04-24T04:08:36;1.97;;;1.20;;
18265;SDS011;9259;48.194;16.322;2023-04-24T04:11:04;6.40;;;1.23;;
18265;SDS011;9259;48.194;16.322;2023-04-24T04:13:32;3.03;;;0.90;;
18265;SDS011;9259;48.194;16.322;2023-04-24T04:16:01;3.00;;;1.50;;
18265;SDS011;9259;48.194;16.322;2023-04-24T04:18:29;2.60;;;1.30;;
18265;SDS011;9259;48.194;16.322;2023-04-24T04:20:57;2.43;;;1.10;;
18265;SDS011;9259;48.194;16.322;2023-04-24T04:23:26;3.33;;;1.37;;
18265;SDS011;9259;48.194;16.322;2023-04-24T04:25:55;2.87;;;1.20;;
18265;SDS011;9259;48.194;16.322;2023-04-24T04:28:23;2.20;;;1.30;;
18265;SDS011;9259;48.194;16.322;2023-04-24T04:30:52;1.33;;;1.10;;
18265;SDS011;9259;48.194;16.322;2023-04-24T04:33:22;2.87;;;1.20;;
18265;SDS011;9259;48.194;16.322;2023-04-24T04:35:51;1.97;;;1.10;;
18265;SDS011;9259;48.194;16.322;2023-04-24T04:38:19;3.67;;;1.20;;
18265;SDS011;9259;48.194;16.322;2023-04-24T04:40:47;2.57;;;1.37;;
18265;SDS011;9259;48.194;16.322;2023-04-24T04:43:15;1.87;;;1.30;;
18265;SDS011;9259;48.194;16.322;2023-04-24T04:45:43;2.53;;;1.20;;
18265;SDS011;9259;48.194;16.322;2023-04-24T04:48:11;1.80;;;1.13;;
18265;SDS011;9259;48.194;16.322;2023-04-24T04:50:41;3.10;;;1.37;;
18265;SDS011;9259;48.194;16.322;2023-04-24T04:53:08;2.67;;;1.17;;
18265;SDS011;9259;48.194;16.322;2023-04-24T04:55:37;2.10;;;1.13;;
18265;SDS011;9259;48.194;16.322;2023-04-24T04:58:05;2.10;;;1.33;;
18265;SDS011;9259;48.194;16.322;2023-04-24T05:00:32;2.40;;;1.30;;
18265;SDS011;9259;48.194;16.322;2023-04-24T05:03:01;2.47;;;1.23;;
18265;SDS011;9259;48.194;16.322;2023-04-24T05:05:29;3.20;;;1.17;;
18265;SDS011;9259;48.194;16.322;2023-04-24T05:07:58;2.03;;;1.13;;
18265;SDS011;9259;48.194;16.322;2023-04-24T05:10:26;1.77;;;0.97;;
18265;SDS011;9259;48.194;16.322;2023-04-24T05:12:55;2.40;;;1.20;;
18265;SDS011;9259;48.194;16.322;2023-04-24T05:15:23;1.70;;;1.27;;
18265;SDS011;9259;48.194;16.322;2023-04-24T05:17:51;3.60;;;1.30;;
18265;SDS011;9259;48.194;16.322;2023-04-24T05:20:19;2.03;;;1.30;;
18265;SDS011;9259;48.194;16.322;2023-04-24T05:22:47;1.67;;;1.13;;
18265;SDS011;9259;48.194;16.322;2023-04-24T05:25:16;1.93;;;1.23;;
18265;SDS011;9259;48.194;16.322;2023-04-24T05:27:44;2.77;;;1.60;;
18265;SDS011;9259;48.194;16.322;2023-04-24T05:30:12;2.43;;;1.10;;
18265;SDS011;9259;48.194;16.322;2023-04-24T05:32:40;1.77;;;1.10;;
18265;SDS011;9259;48.194;16.322;2023-04-24T05:35:08;2.70;;;1.30;;
18265;SDS011;9259;48.194;16.322;2023-04-24T05:37:36;2.30;;;1.17;;
18265;SDS011;9259;48.194;16.322;2023-04-24T05:40:04;1.60;;;0.90;;
18265;SDS011;9259;48.194;16.322;2023-04-24T05:42:36;2.33;;;1.03;;
18265;SDS011;9259;48.194;16.322;2023-04-24T05:45:04;1.47;;;1.20;;
18265;SDS011;9259;48.194;16.322;2023-04-24T05:47:35;1.63;;;0.90;;
18265;SDS011;9259;48.194;16.322;2023-04-24T05:50:03;1.77;;;1.17;;
18265;SDS011;9259;48.194;16.322;2023-04-24T05:52:33;1.70;;;1.10;;
18265;SDS011;9259;48.194;16.322;2023-04-24T05:55:01;5.10;;;1.23;;
18265;SDS011;9259;48.194;16.322;2023-04-24T05:57:29;1.90;;;1.20;;
18265;SDS011;9259;48.194;16.322;2023-04-24T05:59:59;1.73;;;1.00;;
18265;SDS011;9259;48.194;16.322;2023-04-24T06:02:26;2.93;;;1.30;;
18265;SDS011;9259;48.194;16.322;2023-04-24T06:04:58;2.23;;;1.10;;
18265;SDS011;9259;48.194;16.322;2023-04-24T06:07:26;2.40;;;1.13;;
18265;SDS011;9259;48.194;16.322;2023-04-24T06:09:54;1.23;;;0.80;;
18265;SDS011;9259;48.194;16.322;2023-04-24T06:12:22;1.58;;;1.05;;
18265;SDS011;9259;48.194;16.322;2023-04-24T06:14:50;2.58;;;1.00;;
18265;SDS011;9259;48.194;16.322;2023-04-24T06:17:20;1.58;;;0.90;;
18265;SDS011;9259;48.194;16.322;2023-04-24T06:19:47;1.77;;;1.13;;
18265;SDS011;9259;48.194;16.322;2023-04-24T06:22:15;1.17;;;0.85;;
18265;SDS011;9259;48.194;16.322;2023-04-24T06:24:43;1.70;;;0.93;;
18265;SDS011;9259;48.194;16.322;2023-04-24T06:27:11;1.58;;;0.93;;
18265;SDS011;9259;48.194;16.322;2023-04-24T06:29:39;2.17;;;1.20;;
18265;SDS011;9259;48.194;16.322;2023-04-24T06:32:07;1.48;;;0.98;;
18265;SDS011;9259;48.194;16.322;2023-04-24T06:34:36;1.75;;;1.00;;
18265;SDS011;9259;48.194;16.322;2023-04-24T06:37:04;1.67;;;1.02;;
18265;SDS011;9259;48.194;16.322;2023-04-24T06:39:32;2.65;;;1.10;;
18265;SDS011;9259;48.194;16.322;2023-04-24T06:42:00;2.08;;;0.85;;
18265;SDS011;9259;48.194;16.322;2023-04-24T06:44:28;1.65;;;1.00;;
18265;SDS011;9259;48.194;16.322;2023-04-24T06:46:56;1.33;;;0.82;;
18265;SDS011;9259;48.194;16.322;2023-04-24T06:49:24;2.55;;;1.10;;
18265;SDS011;9259;48.194;16.322;2023-04-24T06:51:53;0.95;;;0.80;;
18265;SDS011;9259;48.194;16.322;2023-04-24T06:54:21;1.45;;;1.00;;
18265;SDS011;9259;48.194;16.322;2023-04-24T06:56:49;1.42;;;0.90;;
18265;SDS011;9259;48.194;16.322;2023-04-24T06:59:17;1.80;;;0.63;;
18265;SDS011;9259;48.194;16.322;2023-04-24T07:01:45;1.67;;;1.10;;
18265;SDS011;9259;48.194;16.322;2023-04-24T07:04:13;1.50;;;0.80;;
18265;SDS011;9259;48.194;16.322;2023-04-24T07:06:41;1.98;;;0.88;;
18265;SDS011;9259;48.194;16.322;2023-04-24T07:09:13;1.42;;;0.90;;
18265;SDS011;9259;48.194;16.322;2023-04-24T07:11:41;1.52;;;0.80;;
18265;SDS011;9259;48.194;16.322;2023-04-24T07:14:10;1.42;;;0.70;;
18265;SDS011;9259;48.194;16.322;2023-04-24T07:16:39;3.70;;;0.80;;
18265;SDS011;9259;48.194;16.322;2023-04-24T07:19:06;1.20;;;0.80;;
18265;SDS011;9259;48.194;16.322;2023-04-24T07:21:34;3.45;;;0.82;;
18265;SDS011;9259;48.194;16.322;2023-04-24T07:24:02;0.95;;;0.73;;
18265;SDS011;9259;48.194;16.322;2023-04-24T07:26:32;1.25;;;0.55;;
18265;SDS011;9259;48.194;16.322;2023-04-24T07:29:00;1.23;;;0.80;;
18265;SDS011;9259;48.194;16.322;2023-04-24T07:31:28;2.30;;;1.20;;
18265;SDS011;9259;48.194;16.322;2023-04-24T07:33:56;1.98;;;1.10;;
18265;SDS011;9259;48.194;16.322;2023-04-24T07:36:24;1.38;;;0.75;;
18265;SDS011;9259;48.194;16.322;2023-04-24T07:38:53;0.93;;;0.80;;
18265;SDS011;9259;48.194;16.322;2023-04-24T07:41:22;1.65;;;0.90;;
18265;SDS011;9259;48.194;16.322;2023-04-24T07:43:52;3.03;;;1.15;;
18265;SDS011;9259;48.194;16.322;2023-04-24T07:46:20;3.10;;;0.95;;
18265;SDS011;9259;48.194;16.322;2023-04-24T07:48:49;1.17;;;0.70;;
18265;SDS011;9259;48.194;16.322;2023-04-24T07:51:16;0.82;;;0.70;;
18265;SDS011;9259;48.194;16.322;2023-04-24T07:53:44;1.67;;;0.80;;
18265;SDS011;9259;48.194;16.322;2023-04-24T07:56:12;2.95;;;0.90;;
18265;SDS011;9259;48.194;16.322;2023-04-24T07:58:41;0.90;;;0.60;;
18265;SDS011;9259;48.194;16.322;2023-04-24T08:01:10;1.35;;;0.85;;
18265;SDS011;9259;48.194;16.322;2023-04-24T08:03:38;1.00;;;0.70;;
18265;SDS011;9259;48.194;16.322;2023-04-24T08:06:06;0.80;;;0.70;;
18265;SDS011;9259;48.194;16.322;2023-04-24T08:08:34;2.20;;;1.40;;
18265;SDS011;9259;48.194;16.322;2023-04-24T08:11:02;1.33;;;1.00;;
18265;SDS011;9259;48.194;16.322;2023-04-24T08:13:30;1.20;;;0.70;;
18265;SDS011;9259;48.194;16.322;2023-04-24T08:15:58;1.03;;;0.70;;
18265;SDS011;9259;48.194;16.322;2023-04-24T08:18:27;1.23;;;0.80;;
18265;SDS011;9259;48.194;16.322;2023-04-24T08:20:55;1.00;;;0.67;;
18265;SDS011;9259;48.194;16.322;2023-04-24T08:23:27;1.43;;;0.70;;
18265;SDS011;9259;48.194;16.322;2023-04-24T08:25:55;1.33;;;0.83;;
18265;SDS011;9259;48.194;16.322;2023-04-24T08:28:23;1.30;;;0.67;;
18265;SDS011;9259;48.194;16.322;2023-04-24T08:30:51;0.80;;;0.80;;
18265;SDS011;9259;48.194;16.322;2023-04-24T08:33:20;1.40;;;0.70;;
18265;SDS011;9259;48.194;16.322;2023-04-24T08:35:50;1.00;;;0.50;;
18265;SDS011;9259;48.194;16.322;2023-04-24T08:38:18;1.00;;;0.73;;
18265;SDS011;9259;48.194;16.322;2023-04-24T08:40:46;0.73;;;0.43;;
18265;SDS011;9259;48.194;16.322;2023-04-24T08:43:15;0.83;;;0.57;;
18265;SDS011;9259;48.194;16.322;2023-04-24T08:45:43;1.00;;;0.60;;
18265;SDS011;9259;48.194;16.322;2023-04-24T08:48:11;1.33;;;0.70;;
18265;SDS011;9259;48.194;16.322;2023-04-24T08:50:40;1.17;;;0.50;;
18265;SDS011;9259;48.194;16.322;2023-04-24T08:53:11;1.07;;;0.33;;
18265;SDS011;9259;48.194;16.322;2023-04-24T08:55:40;2.17;;;0.60;;
18265;SDS011;9259;48.194;16.322;2023-04-24T08:58:10;1.80;;;0.70;;
18265;SDS011;9259;48.194;16.322;2023-04-24T09:00:39;0.80;;;0.57;;
18265;SDS011;9259;48.194;16.322;2023-04-24T09:03:13;3.00;;;0.50;;
18265;SDS011;9259;48.194;16.322;2023-04-24T09:05:42;1.07;;;0.50;;
18265;SDS011;9259;48.194;16.322;2023-04-24T09:08:15;0.83;;;0.37;;
18265;SDS011;9259;48.194;16.322;2023-04-24T09:10:45;2.63;;;0.60;;
18265;SDS011;9259;48.194;16.322;2023-04-24T09:13:13;0.80;;;0.33;;
18265;SDS011;9259;48.194;16.322;2023-04-24T09:15:42;0.60;;;0.30;;
18265;SDS011;9259;48.194;16.322;2023-04-24T09:18:10;1.70;;;0.20;;
18265;SDS011;9259;48.194;16.322;2023-04-24T09:23:27;0.47;;;0.30;;
18265;SDS011;9259;48.194;16.322;2023-04-24T09:25:56;0.20;;;0.20;;
18265;SDS011;9259;48.194;16.322;2023-04-24T09:28:27;1.43;;;0.40;;
18265;SDS011;9259;48.194;16.322;2023-04-24T09:31:03;0.50;;;0.40;;
18265;SDS011;9259;48.194;16.322;2023-04-24T09:33:32;0.60;;;0.30;;
18265;SDS011;9259;48.194;16.322;2023-04-24T09:36:00;1.33;;;0.47;;
18265;SDS011;9259;48.194;16.322;2023-04-24T09:38:34;1.10;;;0.40;;
18265;SDS011;9259;48.194;16.322;2023-04-24T09:41:04;0.33;;;0.27;;
18265;SDS011;9259;48.194;16.322;2023-04-24T09:43:34;1.53;;;0.60;;
18265;SDS011;9259;48.194;16.322;2023-04-24T09:46:04;0.67;;;0.40;;
18265;SDS011;9259;48.194;16.322;2023-04-24T09:48:35;0.47;;;0.23;;
18265;SDS011;9259;48.194;16.322;2023-04-24T09:51:05;0.63;;;0.20;;
18265;SDS011;9259;48.194;16.322;2023-04-24T09:53:37;0.50;;;0.40;;
18265;SDS011;9259;48.194;16.322;2023-04-24T09:56:06;1.23;;;0.30;;
18265;SDS011;9259;48.194;16.322;2023-04-24T09:58:35;1.80;;;0.20;;
18265;SDS011;9259;48.194;16.322;2023-04-24T10:01:04;0.60;;;0.40;;
18265;SDS011;9259;48.194;16.322;2023-04-24T10:03:32;1.43;;;0.40;;
18265;SDS011;9259;48.194;16.322;2023-04-24T10:06:01;0.30;;;0.30;;
18265;SDS011;9259;48.194;16.322;2023-04-24T10:08:34;0.50;;;0.23;;
18265;SDS011;9259;48.194;16.322;2023-04-24T10:11:05;0.50;;;0.30;;
18265;SDS011;9259;48.194;16.322;2023-04-24T10:13:33;0.40;;;0.30;;
18265;SDS011;9259;48.194;16.322;2023-04-24T10:16:02;0.90;;;0.30;;
18265;SDS011;9259;48.194;16.322;2023-04-24T10:18:31;0.27;;;0.20;;
18265;SDS011;9259;48.194;16.322;2023-04-24T10:21:00;0.63;;;0.20;;
18265;SDS011;9259;48.194;16.322;2023-04-24T10:23:29;0.30;;;0.30;;
18265;SDS011;9259;48.194;16.322;2023-04-24T10:25:59;0.30;;;0.30;;
18265;SDS011;9259;48.194;16.322;2023-04-24T10:28:28;0.80;;;0.30;;
18265;SDS011;9259;48.194;16.322;2023-04-24T10:30:59;0.30;;;0.30;;
18265;SDS011;9259;48.194;16.322;2023-04-24T10:33:27;0.30;;;0.30;;
18265;SDS011;9259;48.194;16.322;2023-04-24T10:35:56;0.93;;;0.30;;
18265;SDS011;9259;48.194;16.322;2023-04-24T10:38:25;0.40;;;0.30;;
18265;SDS011;9259;48.194;16.322;2023-04-24T10:40:58;0.27;;;0.20;;
18265;SDS011;9259;48.194;16.322;2023-04-24T10:43:36;0.50;;;0.40;;
18265;SDS011;9259;48.194;16.322;2023-04-24T10:46:06;0.50;;;0.47;;
18265;SDS011;9259;48.194;16.322;2023-04-24T10:48:36;1.73;;;0.50;;
18265;SDS011;9259;48.194;16.322;2023-04-24T10:51:11;0.87;;;0.50;;
18265;SDS011;9259;48.194;16.322;2023-04-24T10:53:40;1.07;;;0.40;;
18265;SDS011;9259;48.194;16.322;2023-04-24T10:56:10;0.70;;;0.43;;
18265;SDS011;9259;48.194;16.322;2023-04-24T10:58:39;0.60;;;0.50;;
18265;SDS011;9259;48.194;16.322;2023-04-24T11:01:22;0.50;;;0.40;;
18265;SDS011;9259;48.194;16.322;2023-04-24T11:03:54;0.70;;;0.30;;
18265;SDS011;9259;48.194;16.322;2023-04-24T11:06:29;1.03;;;0.40;;
18265;SDS011;9259;48.194;16.322;2023-04-24T11:09:01;0.33;;;0.30;;
18265;SDS011;9259;48.194;16.322;2023-04-24T11:11:33;0.60;;;0.47;;
18265;SDS011;9259;48.194;16.322;2023-04-24T11:14:06;0.77;;;0.40;;
18265;SDS011;9259;48.194;16.322;2023-04-24T11:16:44;0.93;;;0.43;;
18265;SDS011;9259;48.194;16.322;2023-04-24T11:19:20;1.33;;;0.40;;
18265;SDS011;9259;48.194;16.322;2023-04-24T11:21:54;0.33;;;0.30;;
18265;SDS011;9259;48.194;16.322;2023-04-24T11:24:30;0.50;;;0.40;;
18265;SDS011;9259;48.194;16.322;2023-04-24T11:27:05;1.30;;;0.30;;
18265;SDS011;9259;48.194;16.322;2023-04-24T11:29:40;0.40;;;0.30;;
18265;SDS011;9259;48.194;16.322;2023-04-24T11:32:14;0.97;;;0.50;;
18265;SDS011;9259;48.194;16.322;2023-04-24T11:34:51;0.60;;;0.50;;
18265;SDS011;9259;48.194;16.322;2023-04-24T11:37:21;0.83;;;0.37;;
18265;SDS011;9259;48.194;16.322;2023-04-24T11:39:54;0.80;;;0.40;;
18265;SDS011;9259;48.194;16.322;2023-04-24T11:42:25;1.53;;;0.60;;
18265;SDS011;9259;48.194;16.322;2023-04-24T11:44:55;0.47;;;0.40;;
18265;SDS011;9259;48.194;16.322;2023-04-24T11:47:29;1.10;;;0.60;;
18265;SDS011;9259;48.194;16.322;2023-04-24T11:49:59;0.50;;;0.37;;
18265;SDS011;9259;48.194;16.322;2023-04-24T11:52:28;2.87;;;0.50;;
18265;SDS011;9259;48.194;16.322;2023-04-24T11:54:57;1.33;;;0.40;;
18265;SDS011;9259;48.194;16.322;2023-04-24T11:57:26;1.70;;;0.30;;
18265;SDS011;9259;48.194;16.322;2023-04-24T11:59:59;0.60;;;0.40;;
18265;SDS011;9259;48.194;16.322;2023-04-24T12:02:28;1.53;;;0.63;;
18265;SDS011;9259;48.194;16.322;2023-04-24T12:04:56;1.07;;;0.50;;
18265;SDS011;9259;48.194;16.322;2023-04-24T12:07:23;1.50;;;0.63;;
18265;SDS011;9259;48.194;16.322;2023-04-24T12:09:55;1.17;;;0.70;;
18265;SDS011;9259;48.194;16.322;2023-04-24T12:12:26;1.40;;;0.77;;
18265;SDS011;9259;48.194;16.322;2023-04-24T12:14:56;0.53;;;0.53;;
18265;SDS011;9259;48.194;16.322;2023-04-24T12:17:26;1.17;;;0.60;;
18265;SDS011;9259;48.194;16.322;2023-04-24T12:19:57;0.53;;;0.50;;
18265;SDS011;9259;48.194;16.322;2023-04-24T12:22:28;1.73;;;0.63;;
18265;SDS011;9259;48.194;16.322;2023-04-24T12:25:04;1.37;;;0.67;;
18265;SDS011;9259;48.194;16.322;2023-04-24T12:27:34;0.80;;;0.53;;
18265;SDS011;9259;48.194;16.322;2023-04-24T12:30:02;0.50;;;0.43;;
18265;SDS011;9259;48.194;16.322;2023-04-24T12:32:33;2.10;;;0.63;;
18265;SDS011;9259;48.194;16.322;2023-04-24T12:35:04;2.20;;;0.57;;
18265;SDS011;9259;48.194;16.322;2023-04-24T12:37:33;0.90;;;0.63;;
18265;SDS011;9259;48.194;16.322;2023-04-24T12:40:03;1.13;;;0.60;;
18265;SDS011;9259;48.194;16.322;2023-04-24T12:42:35;0.60;;;0.60;;
18265;SDS011;9259;48.194;16.322;2023-04-24T12:45:09;1.30;;;0.70;;
18265;SDS011;9259;48.194;16.322;2023-04-24T12:47:39;1.17;;;0.77;;
18265;SDS011;9259;48.194;16.322;2023-04-24T12:50:08;1.53;;;0.50;;
18265;SDS011;9259;48.194;16.322;2023-04-24T12:52:37;0.83;;;0.60;;
18265;SDS011;9259;48.194;16.322;2023-04-24T12:55:06;1.03;;;0.60;;
18265;SDS011;9259;48.194;16.322;2023-04-24T12:57:37;0.80;;;0.60;;
18265;SDS011;9259;48.194;16.322;2023-04-24T13:00:07;1.30;;;0.77;;
18265;SDS011;9259;48.194;16.322;2023-04-24T13:02:38;1.70;;;0.73;;
18265;SDS011;9259;48.194;16.322;2023-04-24T13:05:06;3.70;;;0.73;;
18265;SDS011;9259;48.194;16.322;2023-04-24T13:07:37;1.03;;;0.80;;
18265;SDS011;9259;48.194;16.322;2023-04-24T13:10:05;1.80;;;1.00;;
18265;SDS011;9259;48.194;16.322;2023-04-24T13:12:34;2.47;;;0.90;;
18265;SDS011;9259;48.194;16.322;2023-04-24T13:15:05;1.20;;;0.70;;
18265;SDS011;9259;48.194;16.322;2023-04-24T13:17:34;1.60;;;1.10;;
18265;SDS011;9259;48.194;16.322;2023-04-24T13:20:02;0.70;;;0.50;;
18265;SDS011;9259;48.194;16.322;2023-04-24T13:22:32;1.73;;;0.53;;
18265;SDS011;9259;48.194;16.322;2023-04-24T13:25:00;0.70;;;0.50;;
18265;SDS011;9259;48.194;16.322;2023-04-24T13:27:27;1.15;;;0.63;;
18265;SDS011;9259;48.194;16.322;2023-04-24T13:29:57;1.52;;;0.65;;
18265;SDS011;9259;48.194;16.322;2023-04-24T13:32:25;0.68;;;0.40;;
18265;SDS011;9259;48.194;16.322;2023-04-24T13:34:54;0.52;;;0.32;;
18265;SDS011;9259;48.194;16.322;2023-04-24T13:37:23;1.05;;;0.50;;
18265;SDS011;9259;48.194;16.322;2023-04-24T13:39:51;0.77;;;0.50;;
18265;SDS011;9259;48.194;16.322;2023-04-24T13:42:19;1.17;;;0.50;;
18265;SDS011;9259;48.194;16.322;2023-04-24T13:44:47;0.60;;;0.52;;
18265;SDS011;9259;48.194;16.322;2023-04-24T13:47:18;1.02;;;0.70;;
18265;SDS011;9259;48.194;16.322;2023-04-24T13:49:46;0.90;;;0.57;;
18265;SDS011;9259;48.194;16.322;2023-04-24T13:52:14;1.60;;;0.60;;
18265;SDS011;9259;48.194;16.322;2023-04-24T13:54:42;1.23;;;0.90;;
18265;SDS011;9259;48.194;16.322;2023-04-24T13:57:10;0.97;;;0.63;;
18265;SDS011;9259;48.194;16.322;2023-04-24T13:59:38;2.30;;;0.87;;
18265;SDS011;9259;48.194;16.322;2023-04-24T14:02:06;1.60;;;0.63;;
18265;SDS011;9259;48.194;16.322;2023-04-24T14:04:35;3.00;;;0.60;;
18265;SDS011;9259;48.194;16.322;2023-04-24T14:07:03;0.50;;;0.40;;
18265;SDS011;9259;48.194;16.322;2023-04-24T14:09:31;0.87;;;0.50;;
18265;SDS011;9259;48.194;16.322;2023-04-24T14:11:59;1.37;;;0.70;;
18265;SDS011;9259;48.194;16.322;2023-04-24T14:14:28;1.27;;;0.50;;
18265;SDS011;9259;48.194;16.322;2023-04-24T14:16:56;2.20;;;0.70;;
18265;SDS011;9259;48.194;16.322;2023-04-24T14:19:24;1.27;;;0.53;;
18265;SDS011;9259;48.194;16.322;2023-04-24T14:21:53;1.50;;;0.80;;
18265;SDS011;9259;48.194;16.322;2023-04-24T14:24:24;0.90;;;0.50;;
18265;SDS011;9259;48.194;16.322;2023-04-24T14:26:51;3.30;;;0.73;;
18265;SDS011;9259;48.194;16.322;2023-04-24T14:29:19;0.50;;;0.50;;
18265;SDS011;9259;48.194;16.322;2023-04-24T14:31:47;0.43;;;0.30;;
18265;SDS011;9259;48.194;16.322;2023-04-24T14:34:15;1.13;;;0.50;;
18265;SDS011;9259;48.194;16.322;2023-04-24T14:36:43;0.40;;;0.40;;
18265;SDS011;9259;48.194;16.322;2023-04-24T14:39:12;0.67;;;0.60;;
18265;SDS011;9259;48.194;16.322;2023-04-24T14:41:40;1.73;;;0.60;;
18265;SDS011;9259;48.194;16.322;2023-04-24T14:44:08;0.80;;;0.50;;
18265;SDS011;9259;48.194;16.322;2023-04-24T14:46:36;2.27;;;0.50;;
18265;SDS011;9259;48.194;16.322;2023-04-24T14:49:04;1.27;;;0.70;;
18265;SDS011;9259;48.194;16.322;2023-04-24T14:51:35;1.57;;;0.40;;
18265;SDS011;9259;48.194;16.322;2023-04-24T14:54:03;0.67;;;0.50;;
18265;SDS011;9259;48.194;16.322;2023-04-24T14:56:37;1.60;;;0.60;;
18265;SDS011;9259;48.194;16.322;2023-04-24T14:59:06;1.73;;;0.77;;
18265;SDS011;9259;48.194;16.322;2023-04-24T15:01:34;1.80;;;0.70;;